Aérodrome :
LOGIN :

S'inscrire | Disclaimer

   EN    FR    IT 

 










Légende :    VFR   VFR Marginal   IFR   IFR Intensif   IFR Très Intensif
Visi : 
Plafond : 
>= 8 km
>= 3000ft
5 à 8 km
1000 à 3000 ft
1500m à 5 km
500 à 1000 ft
800 à 1500m
200 à 500 ft
< 800m
< 200 ft
Symboles :   Orages  Brouillard  Fortes neiges  Fortes précipitations  Vent > 20 kt
SIGMETs :   Divers  Orages  Givrage  Turbulence  Onde Orograph.  Cendres Volcan.







- Altitude de l'aérodrome : 160 ft
- Code IATA : LRT
- Voir les cartes d'approche


LFRH - Lorient Lann Bihoue

DERNIER METAR :
  • 101330Z AUTO 26003KT 170V290 9999 SCT029 SCT035 BKN100 13/06 Q1031 NOSIG

METARs EXPIRÉS :
  • 101300Z AUTO VRB02KT 9999 FEW028 BKN110 12/06 Q1031 NOSIG
  • 101230Z AUTO VRB03KT 9999 FEW023 12/06 Q1032 NOSIG
  • 101200Z AUTO 28003KT 240V320 CAVOK 12/07 Q1032 NOSIG
  • 101130Z AUTO VRB02KT 9999 FEW040 BKN110 11/08 Q1032 NOSIG
  • 101100Z AUTO 28003KT CAVOK 11/08 Q1032 NOSIG

TAF TAF LFRH
Valide du 10 à 12h jusqu'au 11 à 12h UTC


101100Z 1012/1112 VRB03KT CAVOK
BECMG 1012/1015 BKN025
TEMPO 1100/1109 3000 BR SCT015
PROB30
TEMPO 1106/1108 1000 BCFG
BECMG 1108/1110 10010KT
Pas de NOTAMs connus pour ce terrain.



MET'MAP, la Météo Aéronautique d'un coup d'oeil ! - Copyright ORBIFLY Décembre 2007 - Disclaimer

ORBIFLY MET'MAP TEAM :

Programmation & Développement : Alexandra Zaïnal
Conception & Développement : Baudouin d'Aumeries
Co-Programmation & Développement : Marc-Olivier Méhu
Soutien technique & logistique : Manuel Goepfert

Contact : metmap@orbifly.com




SOURCES & CREDITS :

   NOAA